Terminal Aerodrome Forecast
Issued by NWS

Home | Current Version | Previous Version | Text Only | Print | Product List | Glossary On
Versions: 1 2 3 4 5 6 7 8 9 10 11 12 13 14 15 16
000
FTUS43 KJKL 030533
TAFSME
TAF
KSME 030533Z 0306/0406 VRB05KT P6SM FEW050
     FM030700 00000KT 4SM BR FEW250
     FM031000 00000KT 3SM BR VV003
     FM031230 VRB03KT P6SM FEW250
     FM031500 VRB05KT P6SM SCT050=

USA.gov is the U.S. government's official web portal to all federal, state and local government web resources and services.